sensor_id;sensor_type;location;lat;lon;timestamp;pressure;altitude;pressure_sealevel;temperature;humidity
15193;BME280;7697;51.630;7.484;2023-05-14T00:04:02;101140.59;;;14.43;84.39
15193;BME280;7697;51.630;7.484;2023-05-14T00:09:06;101137.53;;;14.26;84.67
15193;BME280;7697;51.630;7.484;2023-05-14T00:14:07;101129.75;;;14.25;85.27
15193;BME280;7697;51.630;7.484;2023-05-14T00:19:09;101130.19;;;14.22;85.59
15193;BME280;7697;51.630;7.484;2023-05-14T00:24:12;101126.09;;;14.19;85.32
15193;BME280;7697;51.630;7.484;2023-05-14T00:29:14;101124.47;;;14.12;85.57
15193;BME280;7697;51.630;7.484;2023-05-14T00:34:16;101122.22;;;14.02;85.13
15193;BME280;7697;51.630;7.484;2023-05-14T00:39:19;101131.47;;;13.93;84.94
15193;BME280;7697;51.630;7.484;2023-05-14T00:44:21;101126.75;;;13.82;85.53
15193;BME280;7697;51.630;7.484;2023-05-14T00:49:22;101119.19;;;13.72;86.05
15193;BME280;7697;51.630;7.484;2023-05-14T00:54:27;101129.03;;;13.65;86.36
15193;BME280;7697;51.630;7.484;2023-05-14T00:59:29;101127.59;;;13.63;86.45
15193;BME280;7697;51.630;7.484;2023-05-14T01:04:31;101114.28;;;13.63;86.68
15193;BME280;7697;51.630;7.484;2023-05-14T01:09:40;101105.91;;;13.59;87.06
15193;BME280;7697;51.630;7.484;2023-05-14T01:14:49;101119.00;;;13.47;86.55
15193;BME280;7697;51.630;7.484;2023-05-14T01:19:54;101111.44;;;13.31;86.56
15193;BME280;7697;51.630;7.484;2023-05-14T01:24:58;101112.66;;;13.29;86.72
15193;BME280;7697;51.630;7.484;2023-05-14T01:30:05;101111.00;;;13.21;87.03
15193;BME280;7697;51.630;7.484;2023-05-14T01:35:10;101108.09;;;13.09;87.22
15193;BME280;7697;51.630;7.484;2023-05-14T01:40:13;101095.81;;;13.02;87.12
15193;BME280;7697;51.630;7.484;2023-05-14T01:45:15;101099.09;;;13.04;87.09
15193;BME280;7697;51.630;7.484;2023-05-14T01:50:17;101102.78;;;13.03;87.46
15193;BME280;7697;51.630;7.484;2023-05-14T01:55:21;101109.94;;;12.96;87.04
15193;BME280;7697;51.630;7.484;2023-05-14T02:00:23;101096.59;;;12.83;87.26
15193;BME280;7697;51.630;7.484;2023-05-14T02:05:25;101096.78;;;12.81;87.56
15193;BME280;7697;51.630;7.484;2023-05-14T02:10:28;101095.97;;;12.81;87.61
15193;BME280;7697;51.630;7.484;2023-05-14T02:15:30;101093.91;;;12.76;87.71
15193;BME280;7697;51.630;7.484;2023-05-14T02:20:32;101093.50;;;12.72;88.03
15193;BME280;7697;51.630;7.484;2023-05-14T02:25:36;101096.34;;;12.71;88.28
15193;BME280;7697;51.630;7.484;2023-05-14T02:30:38;101092.00;;;12.57;88.86
15193;BME280;7697;51.630;7.484;2023-05-14T02:35:39;101088.34;;;12.64;88.60
15193;BME280;7697;51.630;7.484;2023-05-14T02:40:42;101074.88;;;12.59;88.34
15193;BME280;7697;51.630;7.484;2023-05-14T02:45:44;101081.81;;;12.60;88.47
15193;BME280;7697;51.630;7.484;2023-05-14T02:50:48;101080.00;;;12.61;88.05
15193;BME280;7697;51.630;7.484;2023-05-14T02:55:52;101074.44;;;12.62;88.76
15193;BME280;7697;51.630;7.484;2023-05-14T03:00:53;101077.53;;;12.59;88.87
15193;BME280;7697;51.630;7.484;2023-05-14T03:05:55;101080.97;;;12.53;88.99
15193;BME280;7697;51.630;7.484;2023-05-14T03:10:58;101084.25;;;12.55;88.62
15193;BME280;7697;51.630;7.484;2023-05-14T03:16:00;101077.09;;;12.56;88.96
15193;BME280;7697;51.630;7.484;2023-05-14T03:21:02;101071.97;;;12.54;89.47
15193;BME280;7697;51.630;7.484;2023-05-14T03:26:05;101075.44;;;12.48;89.19
15193;BME280;7697;51.630;7.484;2023-05-14T03:31:07;101073.59;;;12.49;89.57
15193;BME280;7697;51.630;7.484;2023-05-14T03:36:09;101059.69;;;12.40;89.75
15193;BME280;7697;51.630;7.484;2023-05-14T03:41:12;101060.69;;;12.39;89.21
15193;BME280;7697;51.630;7.484;2023-05-14T03:46:14;101064.53;;;12.30;89.62
15193;BME280;7697;51.630;7.484;2023-05-14T03:51:15;101050.19;;;12.18;89.46
15193;BME280;7697;51.630;7.484;2023-05-14T03:56:18;101048.94;;;12.14;89.52
15193;BME280;7697;51.630;7.484;2023-05-14T04:01:20;101056.28;;;12.12;89.57
15193;BME280;7697;51.630;7.484;2023-05-14T04:06:22;101051.16;;;12.10;89.63
15193;BME280;7697;51.630;7.484;2023-05-14T04:11:25;101061.78;;;12.10;89.75
15193;BME280;7697;51.630;7.484;2023-05-14T04:16:27;101048.50;;;12.03;89.80
15193;BME280;7697;51.630;7.484;2023-05-14T04:21:29;101057.47;;;12.02;89.72
15193;BME280;7697;51.630;7.484;2023-05-14T04:26:35;101045.00;;;11.96;89.70
15193;BME280;7697;51.630;7.484;2023-05-14T04:31:37;101046.81;;;11.96;90.00
15193;BME280;7697;51.630;7.484;2023-05-14T04:36:39;101045.81;;;11.97;89.99
15193;BME280;7697;51.630;7.484;2023-05-14T04:41:42;101048.06;;;12.00;90.06
15193;BME280;7697;51.630;7.484;2023-05-14T04:46:43;101044.56;;;11.99;90.04
15193;BME280;7697;51.630;7.484;2023-05-14T04:51:45;101041.09;;;11.99;90.23
15193;BME280;7697;51.630;7.484;2023-05-14T04:56:49;101051.13;;;12.03;90.79
15193;BME280;7697;51.630;7.484;2023-05-14T05:01:51;101046.88;;;12.09;91.15
15193;BME280;7697;51.630;7.484;2023-05-14T05:07:03;101055.47;;;12.18;90.89
15193;BME280;7697;51.630;7.484;2023-05-14T05:12:08;101063.72;;;12.36;91.40
15193;BME280;7697;51.630;7.484;2023-05-14T05:17:10;101058.66;;;12.41;92.26
15193;BME280;7697;51.630;7.484;2023-05-14T05:22:12;101057.22;;;12.38;92.79
15193;BME280;7697;51.630;7.484;2023-05-14T05:27:15;101059.50;;;12.48;93.04
15193;BME280;7697;51.630;7.484;2023-05-14T05:32:17;101058.09;;;12.59;92.46
15193;BME280;7697;51.630;7.484;2023-05-14T05:37:18;101068.53;;;12.60;92.73
15193;BME280;7697;51.630;7.484;2023-05-14T05:42:21;101058.75;;;12.67;92.78
15193;BME280;7697;51.630;7.484;2023-05-14T05:47:23;101072.25;;;12.79;92.59
15193;BME280;7697;51.630;7.484;2023-05-14T05:52:25;101069.63;;;12.86;93.55
15193;BME280;7697;51.630;7.484;2023-05-14T05:57:29;101069.22;;;13.02;92.94
15193;BME280;7697;51.630;7.484;2023-05-14T06:02:31;101076.44;;;13.21;92.59
15193;BME280;7697;51.630;7.484;2023-05-14T06:07:33;101069.47;;;13.46;92.10
15193;BME280;7697;51.630;7.484;2023-05-14T06:12:36;101058.59;;;13.68;92.10
15193;BME280;7697;51.630;7.484;2023-05-14T06:17:38;101061.22;;;13.94;90.66
15193;BME280;7697;51.630;7.484;2023-05-14T06:22:39;101079.94;;;14.25;90.21
15193;BME280;7697;51.630;7.484;2023-05-14T06:27:43;101081.75;;;14.45;89.26
15193;BME280;7697;51.630;7.484;2023-05-14T06:32:44;101080.78;;;14.71;88.66
15193;BME280;7697;51.630;7.484;2023-05-14T06:37:46;101076.09;;;14.97;87.92
15193;BME280;7697;51.630;7.484;2023-05-14T06:42:49;101076.41;;;15.14;87.12
15193;BME280;7697;51.630;7.484;2023-05-14T06:47:51;101079.19;;;15.51;85.59
15193;BME280;7697;51.630;7.484;2023-05-14T06:52:53;101067.63;;;15.82;84.43
15193;BME280;7697;51.630;7.484;2023-05-14T06:57:56;101076.75;;;16.10;83.18
15193;BME280;7697;51.630;7.484;2023-05-14T07:02:57;101068.19;;;16.38;81.88
15193;BME280;7697;51.630;7.484;2023-05-14T07:07:59;101076.19;;;16.57;81.82
15193;BME280;7697;51.630;7.484;2023-05-14T07:13:03;101077.84;;;16.87;81.03
15193;BME280;7697;51.630;7.484;2023-05-14T07:18:05;101069.41;;;17.14;80.45
15193;BME280;7697;51.630;7.484;2023-05-14T07:23:07;101066.66;;;17.44;79.77
15193;BME280;7697;51.630;7.484;2023-05-14T07:28:10;101068.31;;;17.68;78.75
15193;BME280;7697;51.630;7.484;2023-05-14T07:33:12;101060.25;;;17.91;77.24
15193;BME280;7697;51.630;7.484;2023-05-14T07:38:14;101052.78;;;18.05;77.22
15193;BME280;7697;51.630;7.484;2023-05-14T07:43:17;101046.25;;;18.41;75.95
15193;BME280;7697;51.630;7.484;2023-05-14T07:48:19;101044.50;;;18.75;75.17
15193;BME280;7697;51.630;7.484;2023-05-14T07:53:22;101039.22;;;18.97;73.30
15193;BME280;7697;51.630;7.484;2023-05-14T07:58:26;101051.44;;;19.38;71.97
15193;BME280;7697;51.630;7.484;2023-05-14T08:03:29;101035.66;;;19.58;70.62
15193;BME280;7697;51.630;7.484;2023-05-14T08:08:30;101045.03;;;19.77;70.15
15193;BME280;7697;51.630;7.484;2023-05-14T08:13:33;101039.81;;;20.09;70.33
15193;BME280;7697;51.630;7.484;2023-05-14T08:18:35;101041.78;;;20.36;67.80
15193;BME280;7697;51.630;7.484;2023-05-14T08:23:37;101041.47;;;20.59;66.07
15193;BME280;7697;51.630;7.484;2023-05-14T08:28:40;101045.97;;;20.75;65.56
15193;BME280;7697;51.630;7.484;2023-05-14T08:33:42;101049.44;;;21.34;64.26
15193;BME280;7697;51.630;7.484;2023-05-14T08:38:44;101048.88;;;21.75;61.90
15193;BME280;7697;51.630;7.484;2023-05-14T08:43:55;101046.41;;;22.20;59.56
15193;BME280;7697;51.630;7.484;2023-05-14T08:49:04;101042.66;;;22.31;58.81
15193;BME280;7697;51.630;7.484;2023-05-14T08:54:09;101029.72;;;22.33;58.24
15193;BME280;7697;51.630;7.484;2023-05-14T08:59:15;101030.06;;;22.62;55.91
15193;BME280;7697;51.630;7.484;2023-05-14T09:04:20;101027.66;;;23.01;53.43
15193;BME280;7697;51.630;7.484;2023-05-14T09:09:22;101029.56;;;23.31;53.34
15193;BME280;7697;51.630;7.484;2023-05-14T09:14:25;101022.50;;;23.40;52.81
15193;BME280;7697;51.630;7.484;2023-05-14T09:19:27;101023.31;;;23.56;52.15
15193;BME280;7697;51.630;7.484;2023-05-14T09:24:29;101015.91;;;23.82;50.67
15193;BME280;7697;51.630;7.484;2023-05-14T09:29:33;101015.88;;;23.97;49.72
15193;BME280;7697;51.630;7.484;2023-05-14T09:34:34;101013.09;;;24.07;49.77
15193;BME280;7697;51.630;7.484;2023-05-14T09:39:37;101020.63;;;24.25;48.49
15193;BME280;7697;51.630;7.484;2023-05-14T09:44:41;101009.66;;;24.51;47.66
15193;BME280;7697;51.630;7.484;2023-05-14T09:49:42;101002.09;;;24.82;47.08
15193;BME280;7697;51.630;7.484;2023-05-14T09:54:45;100996.16;;;25.14;44.75
15193;BME280;7697;51.630;7.484;2023-05-14T09:59:49;100994.97;;;24.96;44.86
15193;BME280;7697;51.630;7.484;2023-05-14T10:04:52;101000.41;;;25.49;44.26
15193;BME280;7697;51.630;7.484;2023-05-14T10:10:01;100992.66;;;25.66;43.19
15193;BME280;7697;51.630;7.484;2023-05-14T10:15:09;100996.38;;;25.70;42.06
15193;BME280;7697;51.630;7.484;2023-05-14T10:20:14;100993.06;;;25.97;43.90
15193;BME280;7697;51.630;7.484;2023-05-14T10:25:17;100979.34;;;26.07;42.55
15193;BME280;7697;51.630;7.484;2023-05-14T10:30:21;100974.72;;;26.07;42.63
15193;BME280;7697;51.630;7.484;2023-05-14T10:35:23;100973.66;;;26.46;42.96
15193;BME280;7697;51.630;7.484;2023-05-14T10:40:27;100967.72;;;26.44;42.87
15193;BME280;7697;51.630;7.484;2023-05-14T10:45:30;100965.75;;;26.82;41.50
15193;BME280;7697;51.630;7.484;2023-05-14T10:50:33;100968.81;;;26.94;40.24
15193;BME280;7697;51.630;7.484;2023-05-14T10:55:35;100958.72;;;26.95;41.68
15193;BME280;7697;51.630;7.484;2023-05-14T11:00:39;100953.94;;;27.05;39.66
15193;BME280;7697;51.630;7.484;2023-05-14T11:05:42;100946.47;;;27.38;39.67
15193;BME280;7697;51.630;7.484;2023-05-14T11:10:45;100950.91;;;27.20;39.85
15193;BME280;7697;51.630;7.484;2023-05-14T11:15:49;100951.47;;;27.63;40.54
15193;BME280;7697;51.630;7.484;2023-05-14T11:20:51;100945.47;;;27.48;40.27
15193;BME280;7697;51.630;7.484;2023-05-14T11:25:53;100938.75;;;27.45;39.41
15193;BME280;7697;51.630;7.484;2023-05-14T11:30:57;100939.84;;;27.44;39.78
15193;BME280;7697;51.630;7.484;2023-05-14T11:35:59;100930.50;;;27.37;37.12
15193;BME280;7697;51.630;7.484;2023-05-14T11:41:00;100931.47;;;27.13;38.22
15193;BME280;7697;51.630;7.484;2023-05-14T11:46:05;100912.13;;;27.42;38.76
15193;BME280;7697;51.630;7.484;2023-05-14T11:51:07;100915.47;;;27.25;37.98
15193;BME280;7697;51.630;7.484;2023-05-14T11:56:09;100912.94;;;27.56;37.72
15193;BME280;7697;51.630;7.484;2023-05-14T12:01:14;100907.06;;;27.77;38.71
15193;BME280;7697;51.630;7.484;2023-05-14T12:06:17;100907.88;;;28.13;37.13
15193;BME280;7697;51.630;7.484;2023-05-14T12:11:19;100901.22;;;28.19;38.06
15193;BME280;7697;51.630;7.484;2023-05-14T12:16:22;100902.25;;;27.46;38.91
15193;BME280;7697;51.630;7.484;2023-05-14T12:21:25;100889.66;;;27.09;39.45
15193;BME280;7697;51.630;7.484;2023-05-14T12:26:30;100888.25;;;27.12;39.29
15193;BME280;7697;51.630;7.484;2023-05-14T12:31:35;100888.59;;;26.78;41.17
15193;BME280;7697;51.630;7.484;2023-05-14T12:36:36;100869.44;;;26.69;39.93
15193;BME280;7697;51.630;7.484;2023-05-14T12:41:38;100876.28;;;26.67;38.45
15193;BME280;7697;51.630;7.484;2023-05-14T12:46:42;100861.91;;;26.34;41.53
15193;BME280;7697;51.630;7.484;2023-05-14T12:51:43;100868.47;;;25.95;42.80
15193;BME280;7697;51.630;7.484;2023-05-14T12:56:46;100850.34;;;25.72;42.30
15193;BME280;7697;51.630;7.484;2023-05-14T13:01:49;100845.06;;;25.62;42.83
15193;BME280;7697;51.630;7.484;2023-05-14T13:06:51;100853.44;;;25.65;42.01
15193;BME280;7697;51.630;7.484;2023-05-14T13:11:53;100835.25;;;25.66;41.00
15193;BME280;7697;51.630;7.484;2023-05-14T13:16:56;100832.81;;;25.64;42.35
15193;BME280;7697;51.630;7.484;2023-05-14T13:21:59;100839.63;;;25.99;42.17
15193;BME280;7697;51.630;7.484;2023-05-14T13:27:04;100824.28;;;26.27;42.38
15193;BME280;7697;51.630;7.484;2023-05-14T13:32:07;100826.66;;;26.61;40.89
15193;BME280;7697;51.630;7.484;2023-05-14T13:37:09;100821.44;;;26.78;40.74
15193;BME280;7697;51.630;7.484;2023-05-14T13:42:11;100823.53;;;26.68;41.10
15193;BME280;7697;51.630;7.484;2023-05-14T13:47:14;100819.31;;;26.62;40.97
15193;BME280;7697;51.630;7.484;2023-05-14T13:52:16;100811.13;;;26.15;37.76
15193;BME280;7697;51.630;7.484;2023-05-14T13:57:18;100809.25;;;25.97;39.74
15193;BME280;7697;51.630;7.484;2023-05-14T14:02:22;100805.28;;;26.08;40.01
15193;BME280;7697;51.630;7.484;2023-05-14T14:07:24;100802.03;;;26.06;38.10
15193;BME280;7697;51.630;7.484;2023-05-14T14:12:25;100795.22;;;26.09;39.47
15193;BME280;7697;51.630;7.484;2023-05-14T14:17:30;100788.66;;;25.77;40.14
15193;BME280;7697;51.630;7.484;2023-05-14T14:22:33;100778.44;;;25.88;41.08
15193;BME280;7697;51.630;7.484;2023-05-14T14:27:37;100773.38;;;26.33;40.33
15193;BME280;7697;51.630;7.484;2023-05-14T14:32:40;100777.91;;;26.51;39.76
15193;BME280;7697;51.630;7.484;2023-05-14T14:37:44;100770.66;;;26.33;40.81
15193;BME280;7697;51.630;7.484;2023-05-14T14:42:48;100773.19;;;26.43;41.48
15193;BME280;7697;51.630;7.484;2023-05-14T14:53:34;100752.28;;;26.57;40.55
15193;BME280;7697;51.630;7.484;2023-05-14T14:58:36;100751.66;;;26.46;40.35
15193;BME280;7697;51.630;7.484;2023-05-14T15:03:42;100756.47;;;26.36;39.69
15193;BME280;7697;51.630;7.484;2023-05-14T15:08:47;100756.81;;;26.15;39.80
15193;BME280;7697;51.630;7.484;2023-05-14T15:13:49;100748.72;;;25.97;39.82
15193;BME280;7697;51.630;7.484;2023-05-14T15:18:52;100751.47;;;25.78;40.82
15193;BME280;7697;51.630;7.484;2023-05-14T15:23:54;100747.38;;;25.62;40.65
15193;BME280;7697;51.630;7.484;2023-05-14T15:28:56;100744.34;;;25.45;40.89
15193;BME280;7697;51.630;7.484;2023-05-14T15:33:59;100738.66;;;25.27;40.66
15193;BME280;7697;51.630;7.484;2023-05-14T15:39:01;100742.31;;;25.18;42.29
15193;BME280;7697;51.630;7.484;2023-05-14T15:44:03;100731.81;;;24.92;41.50
15193;BME280;7697;51.630;7.484;2023-05-14T15:49:07;100728.94;;;24.79;41.84
15193;BME280;7697;51.630;7.484;2023-05-14T15:54:08;100724.13;;;24.76;42.60
15193;BME280;7697;51.630;7.484;2023-05-14T15:59:10;100723.72;;;24.63;44.56
15193;BME280;7697;51.630;7.484;2023-05-14T16:04:14;100721.28;;;24.62;44.55
15193;BME280;7697;51.630;7.484;2023-05-14T16:09:16;100728.16;;;24.54;45.66
15193;BME280;7697;51.630;7.484;2023-05-14T16:14:19;100727.69;;;24.47;45.92
15193;BME280;7697;51.630;7.484;2023-05-14T16:19:23;100725.72;;;24.29;46.33
15193;BME280;7697;51.630;7.484;2023-05-14T16:24:25;100738.47;;;24.28;47.26
15193;BME280;7697;51.630;7.484;2023-05-14T16:29:27;100731.09;;;24.05;47.11
15193;BME280;7697;51.630;7.484;2023-05-14T16:34:30;100723.25;;;24.04;48.53
15193;BME280;7697;51.630;7.484;2023-05-14T16:39:32;100725.75;;;23.95;48.13
15193;BME280;7697;51.630;7.484;2023-05-14T16:44:33;100733.91;;;23.90;48.92
15193;BME280;7697;51.630;7.484;2023-05-14T16:49:37;100722.88;;;23.86;49.31
15193;BME280;7697;51.630;7.484;2023-05-14T16:54:38;100727.53;;;23.76;48.86
15193;BME280;7697;51.630;7.484;2023-05-14T16:59:40;100725.44;;;23.68;49.05
15193;BME280;7697;51.630;7.484;2023-05-14T17:04:43;100725.78;;;23.61;47.90
15193;BME280;7697;51.630;7.484;2023-05-14T17:09:45;100725.84;;;23.51;47.19
15193;BME280;7697;51.630;7.484;2023-05-14T17:14:47;100728.31;;;23.42;46.89
15193;BME280;7697;51.630;7.484;2023-05-14T17:19:50;100719.19;;;23.33;47.07
15193;BME280;7697;51.630;7.484;2023-05-14T17:24:52;100714.88;;;23.27;47.56
15193;BME280;7697;51.630;7.484;2023-05-14T17:29:53;100728.13;;;23.29;48.03
15193;BME280;7697;51.630;7.484;2023-05-14T17:34:57;100723.06;;;23.17;47.89
15193;BME280;7697;51.630;7.484;2023-05-14T17:39:58;100723.09;;;23.12;48.77
15193;BME280;7697;51.630;7.484;2023-05-14T17:45:00;100734.47;;;23.04;49.02
15193;BME280;7697;51.630;7.484;2023-05-14T17:50:04;100738.59;;;22.86;49.37
15193;BME280;7697;51.630;7.484;2023-05-14T17:55:07;100746.53;;;22.52;51.99
15193;BME280;7697;51.630;7.484;2023-05-14T18:00:09;100740.63;;;22.30;53.93
15193;BME280;7697;51.630;7.484;2023-05-14T18:05:13;100739.28;;;22.22;55.21
15193;BME280;7697;51.630;7.484;2023-05-14T18:10:14;100736.34;;;22.14;54.85
15193;BME280;7697;51.630;7.484;2023-05-14T18:15:16;100740.94;;;22.03;54.29
15193;BME280;7697;51.630;7.484;2023-05-14T18:20:20;100742.56;;;21.99;55.17
15193;BME280;7697;51.630;7.484;2023-05-14T18:25:22;100748.72;;;21.94;55.43
15193;BME280;7697;51.630;7.484;2023-05-14T18:30:24;100746.84;;;21.90;56.44
15193;BME280;7697;51.630;7.484;2023-05-14T18:35:27;100737.13;;;21.84;56.76
15193;BME280;7697;51.630;7.484;2023-05-14T18:40:30;100736.03;;;21.75;57.13
15193;BME280;7697;51.630;7.484;2023-05-14T18:45:32;100734.97;;;21.65;57.75
15193;BME280;7697;51.630;7.484;2023-05-14T18:50:35;100735.50;;;21.47;58.28
15193;BME280;7697;51.630;7.484;2023-05-14T18:55:36;100733.03;;;21.30;59.52
15193;BME280;7697;51.630;7.484;2023-05-14T19:00:38;100726.53;;;21.21;60.25
15193;BME280;7697;51.630;7.484;2023-05-14T19:05:42;100734.59;;;21.16;60.62
15193;BME280;7697;51.630;7.484;2023-05-14T19:10:44;100734.03;;;21.09;61.76
15193;BME280;7697;51.630;7.484;2023-05-14T19:15:45;100734.00;;;20.99;61.94
15193;BME280;7697;51.630;7.484;2023-05-14T19:20:48;100732.84;;;20.85;62.31
15193;BME280;7697;51.630;7.484;2023-05-14T19:25:51;100738.75;;;20.77;63.13
15193;BME280;7697;51.630;7.484;2023-05-14T19:30:52;100743.00;;;20.68;64.02
15193;BME280;7697;51.630;7.484;2023-05-14T19:35:57;100736.53;;;20.64;63.59
15193;BME280;7697;51.630;7.484;2023-05-14T19:40:59;100739.69;;;20.50;66.41
15193;BME280;7697;51.630;7.484;2023-05-14T19:46:01;100749.56;;;20.35;69.24
15193;BME280;7697;51.630;7.484;2023-05-14T19:51:04;100768.19;;;20.14;69.87
15193;BME280;7697;51.630;7.484;2023-05-14T19:56:06;100754.47;;;20.11;69.88
15193;BME280;7697;51.630;7.484;2023-05-14T20:01:08;100755.78;;;20.08;70.12
15193;BME280;7697;51.630;7.484;2023-05-14T20:06:12;100753.34;;;20.02;70.30
15193;BME280;7697;51.630;7.484;2023-05-14T20:11:14;100751.66;;;19.96;70.44
15193;BME280;7697;51.630;7.484;2023-05-14T20:16:17;100766.38;;;19.88;70.99
15193;BME280;7697;51.630;7.484;2023-05-14T20:21:20;100750.16;;;19.78;71.14
15193;BME280;7697;51.630;7.484;2023-05-14T20:26:23;100753.88;;;19.72;71.36
15193;BME280;7697;51.630;7.484;2023-05-14T20:31:25;100750.28;;;19.61;71.74
15193;BME280;7697;51.630;7.484;2023-05-14T20:36:28;100744.97;;;19.44;72.02
15193;BME280;7697;51.630;7.484;2023-05-14T20:41:31;100751.50;;;19.27;72.31
15193;BME280;7697;51.630;7.484;2023-05-14T20:46:32;100740.72;;;19.22;72.39
15193;BME280;7697;51.630;7.484;2023-05-14T20:51:36;100747.34;;;19.14;72.51
15193;BME280;7697;51.630;7.484;2023-05-14T20:56:38;100745.09;;;19.06;72.84
15193;BME280;7697;51.630;7.484;2023-05-14T21:01:42;100737.38;;;18.88;73.76
15193;BME280;7697;51.630;7.484;2023-05-14T21:06:48;100726.44;;;18.72;74.07
15193;BME280;7697;51.630;7.484;2023-05-14T21:11:50;100734.44;;;18.67;74.40
15193;BME280;7697;51.630;7.484;2023-05-14T21:16:55;100732.72;;;18.61;74.93
15193;BME280;7697;51.630;7.484;2023-05-14T21:21:58;100720.22;;;18.50;74.99
15193;BME280;7697;51.630;7.484;2023-05-14T21:27:00;100718.41;;;18.34;75.04
15193;BME280;7697;51.630;7.484;2023-05-14T21:32:02;100717.72;;;18.27;75.07
15193;BME280;7697;51.630;7.484;2023-05-14T21:37:05;100715.81;;;18.22;74.86
15193;BME280;7697;51.630;7.484;2023-05-14T21:42:08;100719.72;;;18.15;73.95
15193;BME280;7697;51.630;7.484;2023-05-14T21:47:09;100707.53;;;18.07;73.97
15193;BME280;7697;51.630;7.484;2023-05-14T21:52:13;100696.50;;;18.04;74.73
15193;BME280;7697;51.630;7.484;2023-05-14T21:57:14;100704.19;;;18.00;75.30
15193;BME280;7697;51.630;7.484;2023-05-14T22:02:16;100702.84;;;17.97;75.94
15193;BME280;7697;51.630;7.484;2023-05-14T22:07:19;100704.63;;;17.92;76.14
15193;BME280;7697;51.630;7.484;2023-05-14T22:12:25;100702.09;;;17.85;75.96
15193;BME280;7697;51.630;7.484;2023-05-14T22:17:27;100703.56;;;17.76;76.29
15193;BME280;7697;51.630;7.484;2023-05-14T22:22:30;100688.38;;;17.65;76.84
15193;BME280;7697;51.630;7.484;2023-05-14T22:27:31;100685.75;;;17.53;77.15
15193;BME280;7697;51.630;7.484;2023-05-14T22:32:33;100671.44;;;17.48;77.55
15193;BME280;7697;51.630;7.484;2023-05-14T22:37:36;100676.63;;;17.38;77.55
15193;BME280;7697;51.630;7.484;2023-05-14T22:42:38;100672.41;;;17.25;78.14
15193;BME280;7697;51.630;7.484;2023-05-14T22:47:39;100680.47;;;17.13;78.53
15193;BME280;7697;51.630;7.484;2023-05-14T22:52:42;100672.91;;;17.10;78.84
15193;BME280;7697;51.630;7.484;2023-05-14T22:57:44;100661.56;;;17.03;79.17
15193;BME280;7697;51.630;7.484;2023-05-14T23:02:46;100663.09;;;16.99;79.75
15193;BME280;7697;51.630;7.484;2023-05-14T23:07:49;100653.00;;;16.90;79.96
15193;BME280;7697;51.630;7.484;2023-05-14T23:12:50;100652.59;;;16.81;80.55
15193;BME280;7697;51.630;7.484;2023-05-14T23:17:52;100640.88;;;16.70;80.86
15193;BME280;7697;51.630;7.484;2023-05-14T23:22:55;100645.88;;;16.67;81.34
15193;BME280;7697;51.630;7.484;2023-05-14T23:27:57;100633.06;;;16.57;81.78
15193;BME280;7697;51.630;7.484;2023-05-14T23:32:59;100638.91;;;16.54;82.13
15193;BME280;7697;51.630;7.484;2023-05-14T23:38:02;100627.50;;;16.47;82.99
15193;BME280;7697;51.630;7.484;2023-05-14T23:43:04;100627.19;;;16.43;83.14
15193;BME280;7697;51.630;7.484;2023-05-14T23:48:06;100637.22;;;16.36;83.40
15193;BME280;7697;51.630;7.484;2023-05-14T23:53:09;100620.47;;;16.29;83.73
15193;BME280;7697;51.630;7.484;2023-05-14T23:58:11;100609.09;;;16.22;83.83
